RYS347 EPWR-LGKO
Flight info
| Callsign | RYS347 |
|---|---|
| Flight time | N/A |
| Altitude | 39000 |
| Route | MOFKE T714 MAPIK T710 IBEKA DCT BABKO DCT PITOK DCT BUDOP DCT LOMOS DCT BLO N127 NIKTI DCT MES UN139 LURUS L995 KOPAR |
| Aircraft | B38M/M-SDE1FGHILORVWXY/HB1 |
Departure
| Time | N/A |
|---|---|
| Airport | Copernicus Wrocław Airport (EPWR) |
Arrival
| Time | 2026-05-03 21:32 |
|---|---|
| Airport | Kos International Airport "Ippokratis" (LGKO) |
| Time | Latitude | Longitude | Altitude | Speed | Heading |
|---|---|---|---|---|---|
| 2026-05-03 20:15 | 44.46798 | 22.87642 | 37174 ft | 476 kts | 152° |
| 2026-05-03 20:15 | 44.40699 | 22.91270 | 37180 ft | 477 kts | 152° |
| 2026-05-03 20:16 | 44.34587 | 22.94899 | 37187 ft | 478 kts | 152° |
| 2026-05-03 20:16 | 44.28500 | 22.98503 | 37185 ft | 479 kts | 152° |
| 2026-05-03 20:17 | 44.22365 | 23.02129 | 37184 ft | 479 kts | 152° |
| 2026-05-03 20:17 | 44.16227 | 23.05747 | 37191 ft | 479 kts | 152° |
| 2026-05-03 20:18 | 44.10083 | 23.09361 | 37198 ft | 479 kts | 153° |
| 2026-05-03 20:18 | 44.03978 | 23.12945 | 37207 ft | 480 kts | 153° |
| 2026-05-03 20:19 | 43.97822 | 23.16552 | 37212 ft | 480 kts | 153° |
| 2026-05-03 20:19 | 43.91661 | 23.20153 | 37213 ft | 480 kts | 153° |
| 2026-05-03 20:20 | 43.85498 | 23.23748 | 37221 ft | 480 kts | 153° |
| 2026-05-03 20:20 | 43.79243 | 23.26901 | 37236 ft | 483 kts | 156° |
| 2026-05-03 20:21 | 43.72911 | 23.30002 | 37232 ft | 482 kts | 156° |
| 2026-05-03 20:21 | 43.66585 | 23.33116 | 37238 ft | 483 kts | 156° |
| 2026-05-03 20:22 | 43.60254 | 23.36227 | 37246 ft | 483 kts | 156° |
| 2026-05-03 20:22 | 43.53972 | 23.39307 | 37254 ft | 482 kts | 156° |
| 2026-05-03 20:23 | 43.47657 | 23.42395 | 37258 ft | 482 kts | 156° |
| 2026-05-03 20:23 | 43.41336 | 23.45480 | 37265 ft | 482 kts | 156° |
| 2026-05-03 20:24 | 43.35018 | 23.48558 | 37267 ft | 482 kts | 156° |
| 2026-05-03 20:24 | 43.28698 | 23.51629 | 37262 ft | 482 kts | 156° |
| 2026-05-03 20:25 | 43.22419 | 23.54673 | 37314 ft | 482 kts | 157° |
| 2026-05-03 20:25 | 43.19253 | 23.56205 | 37448 ft | 482 kts | 157° |
| 2026-05-03 20:25 | 43.16099 | 23.57731 | 37591 ft | 481 kts | 157° |
| 2026-05-03 20:25 | 43.12944 | 23.59255 | 37719 ft | 480 kts | 157° |
| 2026-05-03 20:26 | 43.09794 | 23.60774 | 37841 ft | 480 kts | 157° |
| 2026-05-03 20:26 | 43.06647 | 23.62291 | 37967 ft | 478 kts | 158° |
| 2026-05-03 20:26 | 43.03511 | 23.63801 | 38077 ft | 478 kts | 158° |
| 2026-05-03 20:26 | 43.00422 | 23.65286 | 38200 ft | 477 kts | 158° |
| 2026-05-03 20:27 | 42.97291 | 23.66790 | 38292 ft | 476 kts | 158° |
| 2026-05-03 20:27 | 42.94172 | 23.68287 | 38422 ft | 475 kts | 158° |
| 2026-05-03 20:27 | 42.91066 | 23.69776 | 38529 ft | 474 kts | 158° |
| 2026-05-03 20:27 | 42.87955 | 23.71266 | 38645 ft | 473 kts | 158° |
| 2026-05-03 20:28 | 42.84854 | 23.72749 | 38728 ft | 472 kts | 158° |
| 2026-05-03 20:28 | 42.78656 | 23.75709 | 38851 ft | 472 kts | 159° |
| 2026-05-03 20:29 | 42.72453 | 23.78667 | 38901 ft | 473 kts | 159° |
| 2026-05-03 20:29 | 42.66245 | 23.81505 | 38930 ft | 475 kts | 165° |
| 2026-05-03 20:29 | 42.63056 | 23.82558 | 39164 ft | 468 kts | 164° |
| 2026-05-03 20:30 | 42.59910 | 23.83656 | 39226 ft | 467 kts | 163° |
| 2026-05-03 20:30 | 42.53604 | 23.85905 | 39191 ft | 469 kts | 163° |
| 2026-05-03 20:31 | 42.47289 | 23.88106 | 39187 ft | 469 kts | 164° |
| 2026-05-03 20:31 | 42.40997 | 23.90266 | 39188 ft | 470 kts | 164° |
| 2026-05-03 20:32 | 42.34653 | 23.92443 | 39178 ft | 471 kts | 164° |
| 2026-05-03 20:32 | 42.28245 | 23.94274 | 39191 ft | 471 kts | 168° |
| 2026-05-03 20:33 | 42.21782 | 23.95839 | 39182 ft | 472 kts | 168° |
| 2026-05-03 20:33 | 42.15323 | 23.97443 | 39185 ft | 473 kts | 168° |
| 2026-05-03 20:34 | 42.08887 | 23.99042 | 39185 ft | 473 kts | 168° |
| 2026-05-03 20:34 | 42.02412 | 24.00649 | 39184 ft | 473 kts | 168° |
| 2026-05-03 20:35 | 41.95937 | 24.02223 | 39181 ft | 473 kts | 168° |
| 2026-05-03 20:35 | 41.89473 | 24.03788 | 39184 ft | 472 kts | 168° |
| 2026-05-03 20:36 | 41.83009 | 24.05350 | 39181 ft | 472 kts | 168° |
| 2026-05-03 20:36 | 41.76588 | 24.06898 | 39185 ft | 472 kts | 169° |
| 2026-05-03 20:37 | 41.70134 | 24.08451 | 39182 ft | 471 kts | 169° |
| 2026-05-03 20:37 | 41.63673 | 24.10003 | 39174 ft | 472 kts | 169° |
| 2026-05-03 20:38 | 41.57198 | 24.11554 | 39186 ft | 472 kts | 168° |
| 2026-05-03 20:38 | 41.54013 | 24.12579 | 39162 ft | 470 kts | 156° |
| 2026-05-03 20:38 | 41.51062 | 24.14279 | 39192 ft | 469 kts | 155° |
| 2026-05-03 20:39 | 41.45041 | 24.17646 | 39183 ft | 469 kts | 155° |
| 2026-05-03 20:39 | 41.39031 | 24.21055 | 39176 ft | 469 kts | 155° |
| 2026-05-03 20:40 | 41.33020 | 24.24464 | 39169 ft | 470 kts | 155° |
| 2026-05-03 20:40 | 41.26998 | 24.27875 | 39163 ft | 470 kts | 155° |
| 2026-05-03 20:41 | 41.21016 | 24.31254 | 39159 ft | 470 kts | 155° |
| 2026-05-03 20:41 | 41.14993 | 24.34651 | 39159 ft | 471 kts | 155° |
| 2026-05-03 20:42 | 41.08961 | 24.38046 | 39145 ft | 471 kts | 155° |
| 2026-05-03 20:42 | 41.02935 | 24.41431 | 39138 ft | 471 kts | 155° |
| 2026-05-03 20:43 | 40.96894 | 24.44818 | 39136 ft | 471 kts | 156° |
| 2026-05-03 20:43 | 40.90902 | 24.48170 | 39131 ft | 471 kts | 156° |
| 2026-05-03 20:44 | 40.84863 | 24.51541 | 39131 ft | 471 kts | 156° |
| 2026-05-03 20:44 | 40.78818 | 24.54910 | 39130 ft | 471 kts | 156° |
| 2026-05-03 20:45 | 40.72777 | 24.58270 | 39136 ft | 471 kts | 156° |
| 2026-05-03 20:45 | 40.66734 | 24.61624 | 39132 ft | 471 kts | 156° |
| 2026-05-03 20:46 | 40.60733 | 24.64948 | 39136 ft | 471 kts | 156° |
| 2026-05-03 20:46 | 40.54690 | 24.68289 | 39133 ft | 471 kts | 156° |
| 2026-05-03 20:47 | 40.48645 | 24.71625 | 39133 ft | 471 kts | 156° |
| 2026-05-03 20:47 | 40.42590 | 24.74959 | 39135 ft | 472 kts | 156° |
| 2026-05-03 20:48 | 40.36527 | 24.78292 | 39133 ft | 473 kts | 156° |
| 2026-05-03 20:48 | 40.30492 | 24.81602 | 39133 ft | 474 kts | 156° |
| 2026-05-03 20:49 | 40.24406 | 24.84935 | 39133 ft | 474 kts | 156° |
| 2026-05-03 20:49 | 40.18307 | 24.88267 | 39129 ft | 475 kts | 156° |
| 2026-05-03 20:50 | 40.12202 | 24.91596 | 39126 ft | 476 kts | 156° |
| 2026-05-03 20:50 | 40.06134 | 24.94899 | 39120 ft | 476 kts | 156° |
| 2026-05-03 20:51 | 40.00026 | 24.98217 | 39113 ft | 476 kts | 156° |
| 2026-05-03 20:51 | 39.93917 | 25.01530 | 39110 ft | 476 kts | 156° |
| 2026-05-03 20:52 | 39.87798 | 25.04840 | 39111 ft | 476 kts | 156° |
| 2026-05-03 20:52 | 39.81684 | 25.08142 | 39105 ft | 475 kts | 157° |
| 2026-05-03 20:53 | 39.75615 | 25.11414 | 39108 ft | 475 kts | 157° |
| 2026-05-03 20:53 | 39.69506 | 25.14700 | 39111 ft | 476 kts | 157° |
| 2026-05-03 20:54 | 39.64419 | 25.17433 | 39113 ft | 476 kts | 157° |
| 2026-05-03 20:54 | 39.54240 | 25.22886 | 39114 ft | 477 kts | 157° |
| 2026-05-03 20:55 | 39.48100 | 25.26167 | 39111 ft | 478 kts | 157° |
| 2026-05-03 20:55 | 39.41946 | 25.29451 | 39106 ft | 479 kts | 157° |
| 2026-05-03 20:56 | 39.35784 | 25.32731 | 39103 ft | 480 kts | 157° |
| 2026-05-03 20:56 | 39.30647 | 25.35461 | 39098 ft | 480 kts | 158° |
| 2026-05-03 20:57 | 39.23460 | 25.39273 | 39096 ft | 481 kts | 158° |
| 2026-05-03 20:57 | 39.17259 | 25.42555 | 39089 ft | 482 kts | 158° |
| 2026-05-03 20:58 | 39.12113 | 25.45274 | 39085 ft | 481 kts | 158° |
| 2026-05-03 20:58 | 39.05910 | 25.48546 | 39081 ft | 482 kts | 158° |
| 2026-05-03 20:59 | 38.99704 | 25.51814 | 39077 ft | 482 kts | 158° |
| 2026-05-03 20:59 | 38.92482 | 25.55608 | 39073 ft | 483 kts | 158° |
| 2026-05-03 21:00 | 38.88320 | 25.57790 | 39072 ft | 482 kts | 158° |
| 2026-05-03 21:00 | 38.81108 | 25.61566 | 39071 ft | 482 kts | 158° |
| 2026-05-03 21:01 | 38.74887 | 25.64817 | 39067 ft | 483 kts | 158° |
| 2026-05-03 21:01 | 38.68665 | 25.68062 | 39065 ft | 483 kts | 158° |
| 2026-05-03 21:02 | 38.62436 | 25.71304 | 39056 ft | 483 kts | 159° |
| 2026-05-03 21:02 | 38.56258 | 25.74535 | 39049 ft | 483 kts | 155° |
| 2026-05-03 21:03 | 38.50200 | 25.78169 | 39046 ft | 480 kts | 162° |
| 2026-05-03 21:03 | 38.43982 | 25.81255 | 38655 ft | 478 kts | 159° |
| 2026-05-03 21:04 | 38.40871 | 25.82819 | 37777 ft | 482 kts | 159° |
| 2026-05-03 21:04 | 38.37744 | 25.84372 | 37123 ft | 481 kts | 159° |
| 2026-05-03 21:04 | 38.34685 | 25.85885 | 36691 ft | 475 kts | 159° |
| 2026-05-03 21:04 | 38.31618 | 25.87399 | 36224 ft | 471 kts | 159° |
| 2026-05-03 21:05 | 38.28568 | 25.88903 | 35681 ft | 469 kts | 159° |
| 2026-05-03 21:05 | 38.25532 | 25.90382 | 35119 ft | 468 kts | 160° |
| 2026-05-03 21:05 | 38.22460 | 25.91777 | 34294 ft | 467 kts | 160° |
| 2026-05-03 21:05 | 38.19422 | 25.93160 | 33634 ft | 459 kts | 160° |
| 2026-05-03 21:06 | 38.16441 | 25.94521 | 33183 ft | 452 kts | 160° |
| 2026-05-03 21:06 | 38.13501 | 25.95865 | 32732 ft | 447 kts | 160° |
| 2026-05-03 21:06 | 38.10578 | 25.97200 | 32230 ft | 445 kts | 160° |
| 2026-05-03 21:06 | 38.07717 | 25.98506 | 31747 ft | 442 kts | 160° |
| 2026-05-03 21:07 | 38.04835 | 25.99820 | 31271 ft | 439 kts | 160° |
| 2026-05-03 21:07 | 38.01966 | 26.01127 | 30794 ft | 437 kts | 159° |
| 2026-05-03 21:07 | 37.99115 | 26.02424 | 30323 ft | 434 kts | 159° |
| 2026-05-03 21:07 | 37.96280 | 26.03714 | 29811 ft | 432 kts | 159° |
| 2026-05-03 21:08 | 37.93460 | 26.04995 | 29293 ft | 429 kts | 159° |
| 2026-05-03 21:08 | 37.90667 | 26.06263 | 28838 ft | 424 kts | 159° |
| 2026-05-03 21:08 | 37.87900 | 26.07518 | 28398 ft | 420 kts | 159° |
| 2026-05-03 21:08 | 37.85161 | 26.08761 | 27953 ft | 416 kts | 158° |
| 2026-05-03 21:09 | 37.82483 | 26.09973 | 27523 ft | 413 kts | 158° |
| 2026-05-03 21:09 | 37.79788 | 26.11193 | 27093 ft | 409 kts | 158° |
| 2026-05-03 21:09 | 37.77119 | 26.12401 | 26674 ft | 406 kts | 158° |
| 2026-05-03 21:09 | 37.74572 | 26.13893 | 25911 ft | 402 kts | 142° |
| 2026-05-03 21:10 | 37.72351 | 26.15984 | 25152 ft | 397 kts | 142° |
| 2026-05-03 21:10 | 37.70097 | 26.17991 | 24432 ft | 394 kts | 141° |
| 2026-05-03 21:10 | 37.67855 | 26.19963 | 23728 ft | 391 kts | 142° |
| 2026-05-03 21:10 | 37.65638 | 26.21900 | 23067 ft | 384 kts | 141° |
| 2026-05-03 21:11 | 37.63503 | 26.23762 | 22679 ft | 372 kts | 142° |
| 2026-05-03 21:11 | 37.61386 | 26.25606 | 22320 ft | 369 kts | 142° |
| 2026-05-03 21:11 | 37.59288 | 26.27433 | 21954 ft | 365 kts | 141° |
| 2026-05-03 21:11 | 37.57205 | 26.29244 | 21599 ft | 362 kts | 142° |
| 2026-05-03 21:12 | 37.55141 | 26.31036 | 21244 ft | 359 kts | 142° |
| 2026-05-03 21:12 | 37.53095 | 26.32814 | 20892 ft | 356 kts | 142° |
| 2026-05-03 21:12 | 37.51063 | 26.34576 | 20540 ft | 353 kts | 142° |
| 2026-05-03 21:12 | 37.49046 | 26.36324 | 20195 ft | 351 kts | 142° |
| 2026-05-03 21:13 | 37.47042 | 26.38061 | 19840 ft | 349 kts | 142° |
| 2026-05-03 21:13 | 37.45073 | 26.39765 | 19506 ft | 347 kts | 142° |
| 2026-05-03 21:13 | 37.43091 | 26.41480 | 19157 ft | 345 kts | 142° |
| 2026-05-03 21:13 | 37.41117 | 26.43187 | 18810 ft | 344 kts | 142° |
| 2026-05-03 21:14 | 37.39153 | 26.44884 | 18467 ft | 342 kts | 143° |
| 2026-05-03 21:14 | 37.37191 | 26.46578 | 18103 ft | 341 kts | 143° |
| 2026-05-03 21:14 | 37.35240 | 26.48261 | 17727 ft | 340 kts | 143° |
| 2026-05-03 21:14 | 37.33298 | 26.49936 | 17373 ft | 337 kts | 143° |
| 2026-05-03 21:15 | 37.31370 | 26.51597 | 17031 ft | 335 kts | 143° |
| 2026-05-03 21:15 | 37.29456 | 26.53245 | 16687 ft | 333 kts | 142° |
| 2026-05-03 21:15 | 37.27580 | 26.54860 | 16366 ft | 330 kts | 142° |
| 2026-05-03 21:15 | 37.25689 | 26.56487 | 16025 ft | 329 kts | 142° |
| 2026-05-03 21:16 | 37.23799 | 26.58111 | 15681 ft | 332 kts | 142° |
| 2026-05-03 21:16 | 37.21879 | 26.59760 | 15334 ft | 336 kts | 142° |
| 2026-05-03 21:16 | 37.19944 | 26.61422 | 14987 ft | 338 kts | 142° |
| 2026-05-03 21:16 | 37.18003 | 26.63086 | 14651 ft | 338 kts | 142° |
| 2026-05-03 21:17 | 37.16058 | 26.64753 | 14301 ft | 339 kts | 142° |
| 2026-05-03 21:17 | 37.14117 | 26.66417 | 13950 ft | 338 kts | 142° |
| 2026-05-03 21:17 | 37.12175 | 26.68079 | 13582 ft | 337 kts | 142° |
| 2026-05-03 21:17 | 37.10239 | 26.69736 | 13195 ft | 336 kts | 142° |
| 2026-05-03 21:18 | 37.08339 | 26.71361 | 12846 ft | 334 kts | 142° |
| 2026-05-03 21:18 | 37.06956 | 26.72544 | 12600 ft | 333 kts | 142° |
| 2026-05-03 21:18 | 37.05432 | 26.73845 | 12321 ft | 331 kts | 142° |
| 2026-05-03 21:18 | 37.03534 | 26.75466 | 11976 ft | 329 kts | 142° |
| 2026-05-03 21:19 | 37.01647 | 26.77077 | 11627 ft | 328 kts | 142° |
| 2026-05-03 21:19 | 36.99770 | 26.78677 | 11284 ft | 326 kts | 142° |
| 2026-05-03 21:19 | 36.97897 | 26.80274 | 10939 ft | 325 kts | 142° |
| 2026-05-03 21:19 | 36.96030 | 26.81864 | 10593 ft | 324 kts | 142° |
| 2026-05-03 21:20 | 36.94196 | 26.83426 | 10249 ft | 323 kts | 142° |
| 2026-05-03 21:20 | 36.92344 | 26.85001 | 10011 ft | 318 kts | 142° |
| 2026-05-03 21:20 | 36.90525 | 26.86548 | 9727 ft | 315 kts | 142° |
| 2026-05-03 21:20 | 36.88716 | 26.88086 | 9347 ft | 315 kts | 142° |
| 2026-05-03 21:21 | 36.86902 | 26.89626 | 8981 ft | 314 kts | 142° |
| 2026-05-03 21:21 | 36.85099 | 26.91157 | 8641 ft | 313 kts | 142° |
| 2026-05-03 21:21 | 36.83300 | 26.92682 | 8299 ft | 312 kts | 142° |
| 2026-05-03 21:21 | 36.81534 | 26.94179 | 7964 ft | 311 kts | 142° |
| 2026-05-03 21:22 | 36.79748 | 26.95693 | 7630 ft | 310 kts | 142° |
| 2026-05-03 21:22 | 36.77971 | 26.97197 | 7285 ft | 309 kts | 143° |
| 2026-05-03 21:22 | 36.76193 | 26.98703 | 6963 ft | 309 kts | 143° |
| 2026-05-03 21:22 | 36.74415 | 27.00206 | 6610 ft | 308 kts | 143° |
| 2026-05-03 21:23 | 36.72643 | 27.01704 | 6290 ft | 308 kts | 143° |
| 2026-05-03 21:23 | 36.70875 | 27.03198 | 5942 ft | 307 kts | 143° |
| 2026-05-03 21:23 | 36.69108 | 27.04691 | 5611 ft | 306 kts | 142° |
| 2026-05-03 21:23 | 36.67368 | 27.06160 | 5445 ft | 298 kts | 142° |
| 2026-05-03 21:24 | 36.65697 | 27.07569 | 5313 ft | 290 kts | 142° |
| 2026-05-03 21:24 | 36.64059 | 27.08949 | 5167 ft | 276 kts | 142° |
| 2026-05-03 21:24 | 36.62518 | 27.10248 | 5068 ft | 259 kts | 142° |
| 2026-05-03 21:24 | 36.61107 | 27.11514 | 4951 ft | 239 kts | 129° |
| 2026-05-03 21:25 | 36.60307 | 27.13163 | 4713 ft | 212 kts | 94° |
| 2026-05-03 21:25 | 36.60280 | 27.14895 | 4483 ft | 193 kts | 67° |
| 2026-05-03 21:25 | 36.60617 | 27.16481 | 4302 ft | 189 kts | 63° |
| 2026-05-03 21:25 | 36.61001 | 27.18046 | 4049 ft | 190 kts | 62° |
| 2026-05-03 21:26 | 36.61432 | 27.19563 | 3779 ft | 184 kts | 52° |
| 2026-05-03 21:26 | 36.62258 | 27.20602 | 3545 ft | 160 kts | 17° |
| 2026-05-03 21:26 | 36.63277 | 27.20750 | 3443 ft | 143 kts | 352° |
| 2026-05-03 21:26 | 36.64244 | 27.20485 | 3356 ft | 143 kts | 343° |
| 2026-05-03 21:27 | 36.65162 | 27.20003 | 3181 ft | 143 kts | 337° |
| 2026-05-03 21:27 | 36.66044 | 27.19431 | 2968 ft | 143 kts | 334° |
| 2026-05-03 21:27 | 36.66899 | 27.18819 | 2808 ft | 141 kts | 333° |
| 2026-05-03 21:27 | 36.67730 | 27.18193 | 2703 ft | 142 kts | 332° |
| 2026-05-03 21:28 | 36.68565 | 27.17554 | 2625 ft | 137 kts | 332° |
| 2026-05-03 21:28 | 36.69358 | 27.16943 | 2487 ft | 132 kts | 332° |
| 2026-05-03 21:28 | 36.70135 | 27.16343 | 2342 ft | 131 kts | 332° |
| 2026-05-03 21:28 | 36.70908 | 27.15746 | 2180 ft | 129 kts | 332° |
| 2026-05-03 21:29 | 36.71654 | 27.15169 | 2036 ft | 123 kts | 332° |
| 2026-05-03 21:29 | 36.72368 | 27.14616 | 1866 ft | 120 kts | 332° |
| 2026-05-03 21:29 | 36.73075 | 27.14069 | 1710 ft | 119 kts | 332° |
| 2026-05-03 21:29 | 36.73768 | 27.13530 | 1548 ft | 119 kts | 332° |
| 2026-05-03 21:30 | 36.74460 | 27.12995 | 1396 ft | 115 kts | 332° |
| 2026-05-03 21:30 | 36.75136 | 27.12472 | 1228 ft | 115 kts | 332° |
| 2026-05-03 21:30 | 36.75823 | 27.11937 | 1074 ft | 118 kts | 331° |
| 2026-05-03 21:30 | 36.76514 | 27.11402 | 900 ft | 116 kts | 331° |
| 2026-05-03 21:31 | 36.77197 | 27.10878 | 716 ft | 115 kts | 331° |
| 2026-05-03 21:31 | 36.77902 | 27.10325 | 557 ft | 121 kts | 331° |
| 2026-05-03 21:31 | 36.78619 | 27.09771 | 414 ft | 120 kts | 330° |
| 2026-05-03 21:31 | 36.79233 | 27.09291 | 410 ft | 76 kts | 328° |
| 2026-05-03 21:32 | 36.79487 | 27.09092 | 419 ft | 19 kts | 328° |
| 2026-05-03 21:32 | 36.79593 | 27.09011 | 418 ft | 17 kts | 329° |
| 2026-05-03 21:32 | 36.79710 | 27.08990 | 416 ft | 18 kts | 358° |
| 2026-05-03 21:32 | 36.79820 | 27.08985 | 417 ft | 9 kts | 359° |
| 2026-05-03 21:33 | 36.79887 | 27.08983 | 412 ft | 11 kts | 359° |
| 2026-05-03 21:33 | 36.79951 | 27.08969 | 419 ft | 10 kts | 335° |
| 2026-05-03 21:33 | 36.79982 | 27.08947 | 417 ft | 3 kts | 328° |
| 2026-05-03 21:33 | 36.80003 | 27.08930 | 417 ft | 5 kts | 328° |
| 2026-05-03 21:34 | 36.80070 | 27.08879 | 418 ft | 17 kts | 328° |
| 2026-05-03 21:34 | 36.80132 | 27.08901 | 415 ft | 2 kts | 57° |
| 2026-05-03 21:34 | 36.80142 | 27.08919 | 419 ft | 0 kts | 57° |
| 2026-05-03 21:34 | 36.80142 | 27.08920 | 419 ft | 0 kts | 57° |